sensor_id;sensor_type;location;lat;lon;timestamp;pressure;altitude;pressure_sealevel;temperature;humidity
30714;BME280;17465;47.934;33.430;2023-11-19T00:00:59;57420.45;;;-140.43;93.59
30714;BME280;17465;47.934;33.430;2023-11-19T00:03:29;57433.16;;;-140.43;93.20
30714;BME280;17465;47.934;33.430;2023-11-19T00:06:02;57433.16;;;-140.43;93.20
30714;BME280;17465;47.934;33.430;2023-11-19T00:08:33;57419.39;;;-140.43;93.96
30714;BME280;17465;47.934;33.430;2023-11-19T00:11:03;57438.46;;;-140.43;94.13
30714;BME280;17465;47.934;33.430;2023-11-19T00:13:34;57438.46;;;-140.43;94.13
30714;BME280;17465;47.934;33.430;2023-11-19T00:16:04;57406.68;;;-140.43;93.72
30714;BME280;17465;47.934;33.430;2023-11-19T00:18:35;57443.75;;;-140.43;93.70
30714;BME280;17465;47.934;33.430;2023-11-19T00:21:05;57443.75;;;-140.43;93.70
30714;BME280;17465;47.934;33.430;2023-11-19T00:23:39;57414.10;;;-140.43;93.42
30714;BME280;17465;47.934;33.430;2023-11-19T00:26:12;57414.10;;;-140.43;93.42
30714;BME280;17465;47.934;33.430;2023-11-19T00:28:47;57425.75;;;-140.43;93.25
30714;BME280;17465;47.934;33.430;2023-11-19T00:31:17;57407.74;;;-140.43;93.98
30714;BME280;17465;47.934;33.430;2023-11-19T00:33:47;57407.74;;;-140.43;93.98
30714;BME280;17465;47.934;33.430;2023-11-19T00:36:19;57432.10;;;-140.43;94.08
30714;BME280;17465;47.934;33.430;2023-11-19T00:38:50;57432.10;;;-140.43;94.08
30714;BME280;17465;47.934;33.430;2023-11-19T00:41:21;57416.21;;;-140.43;92.84
30714;BME280;17465;47.934;33.430;2023-11-19T00:43:51;57416.21;;;-140.43;92.84
30714;BME280;17465;47.934;33.430;2023-11-19T00:46:21;57433.16;;;-140.43;94.03
30714;BME280;17465;47.934;33.430;2023-11-19T00:48:58;57433.16;;;-140.43;94.03
30714;BME280;17465;47.934;33.430;2023-11-19T00:51:30;57407.74;;;-140.43;92.93
30714;BME280;17465;47.934;33.430;2023-11-19T00:54:01;57416.21;;;-140.43;92.71
30714;BME280;17465;47.934;33.430;2023-11-19T00:56:35;57416.21;;;-140.43;92.71
30714;BME280;17465;47.934;33.430;2023-11-19T00:59:06;57428.92;;;-140.43;93.06
30714;BME280;17465;47.934;33.430;2023-11-19T01:01:36;57434.22;;;-140.43;92.45
30714;BME280;17465;47.934;33.430;2023-11-19T01:04:16;57410.92;;;-140.43;92.58
30714;BME280;17465;47.934;33.430;2023-11-19T01:06:52;57410.92;;;-140.43;92.58
30714;BME280;17465;47.934;33.430;2023-11-19T01:09:32;57435.28;;;-140.43;93.55
30714;BME280;17465;47.934;33.430;2023-11-19T01:12:07;57431.04;;;-140.43;93.15
30714;BME280;17465;47.934;33.430;2023-11-19T01:14:37;57375.97;;;-140.43;93.15
30714;BME280;17465;47.934;33.430;2023-11-19T01:17:08;57426.80;;;-140.43;93.39
30714;BME280;17465;47.934;33.430;2023-11-19T01:19:38;57426.80;;;-140.43;93.39
30714;BME280;17465;47.934;33.430;2023-11-19T01:22:09;57428.92;;;-140.43;93.15
30714;BME280;17465;47.934;33.430;2023-11-19T01:24:39;57424.69;;;-140.43;93.81
30714;BME280;17465;47.934;33.430;2023-11-19T01:27:09;57424.69;;;-140.43;93.81
30714;BME280;17465;47.934;33.430;2023-11-19T01:29:39;57402.45;;;-140.43;94.30
30714;BME280;17465;47.934;33.430;2023-11-19T01:32:10;57432.10;;;-140.43;93.45
30714;BME280;17465;47.934;33.430;2023-11-19T01:34:41;57423.63;;;-140.43;94.25
30714;BME280;17465;47.934;33.430;2023-11-19T01:37:11;57423.63;;;-140.43;94.25
30714;BME280;17465;47.934;33.430;2023-11-19T01:39:46;57416.21;;;-140.43;93.65
30714;BME280;17465;47.934;33.430;2023-11-19T01:42:18;57426.80;;;-140.43;93.07
30714;BME280;17465;47.934;33.430;2023-11-19T01:44:59;57426.80;;;-140.43;93.03
30714;BME280;17465;47.934;33.430;2023-11-19T01:47:30;57426.80;;;-140.43;93.03
30714;BME280;17465;47.934;33.430;2023-11-19T01:50:02;57449.05;;;-140.43;93.51
30714;BME280;17465;47.934;33.430;2023-11-19T01:52:35;57449.05;;;-140.43;93.51
30714;BME280;17465;47.934;33.430;2023-11-19T01:55:07;57434.22;;;-140.43;93.19
30714;BME280;17465;47.934;33.430;2023-11-19T01:57:39;57436.34;;;-140.43;93.63
30714;BME280;17465;47.934;33.430;2023-11-19T02:00:11;57418.33;;;-140.43;93.00
30714;BME280;17465;47.934;33.430;2023-11-19T02:02:43;57414.10;;;-140.43;94.13
30714;BME280;17465;47.934;33.430;2023-11-19T02:05:14;57432.10;;;-140.43;93.83
30714;BME280;17465;47.934;33.430;2023-11-19T02:07:45;57419.39;;;-140.43;93.55
30714;BME280;17465;47.934;33.430;2023-11-19T02:10:15;57433.16;;;-140.43;93.63
30714;BME280;17465;47.934;33.430;2023-11-19T02:12:46;57433.16;;;-140.43;93.63
30714;BME280;17465;47.934;33.430;2023-11-19T02:15:16;57419.39;;;-140.43;93.17
30714;BME280;17465;47.934;33.430;2023-11-19T02:17:47;57446.93;;;-140.43;93.83
30714;BME280;17465;47.934;33.430;2023-11-19T02:20:17;57446.93;;;-140.43;93.83
30714;BME280;17465;47.934;33.430;2023-11-19T02:22:48;57420.45;;;-140.43;93.94
30714;BME280;17465;47.934;33.430;2023-11-19T02:25:22;57413.04;;;-140.43;93.87
30714;BME280;17465;47.934;33.430;2023-11-19T02:27:59;57411.98;;;-140.43;93.63
30714;BME280;17465;47.934;33.430;2023-11-19T02:30:31;57411.98;;;-140.43;93.63
30714;BME280;17465;47.934;33.430;2023-11-19T02:33:01;57423.63;;;-140.43;93.70
30714;BME280;17465;47.934;33.430;2023-11-19T02:35:35;57446.93;;;-140.43;93.73
30714;BME280;17465;47.934;33.430;2023-11-19T02:38:05;57416.21;;;-140.43;93.57
30714;BME280;17465;47.934;33.430;2023-11-19T02:40:36;57416.21;;;-140.43;93.57
30714;BME280;17465;47.934;33.430;2023-11-19T02:43:06;57425.75;;;-140.43;94.83
30714;BME280;17465;47.934;33.430;2023-11-19T02:45:36;57434.22;;;-140.43;95.39
30714;BME280;17465;47.934;33.430;2023-11-19T02:48:07;57446.93;;;-140.43;95.71
30714;BME280;17465;47.934;33.430;2023-11-19T02:50:37;57409.86;;;-140.43;95.04
30714;BME280;17465;47.934;33.430;2023-11-19T02:53:07;57409.86;;;-140.43;95.04
30714;BME280;17465;47.934;33.430;2023-11-19T02:55:37;57424.69;;;-140.43;93.88
30714;BME280;17465;47.934;33.430;2023-11-19T02:58:08;57457.52;;;-140.43;95.17
30714;BME280;17465;47.934;33.430;2023-11-19T03:00:40;57410.92;;;-140.43;95.69
30714;BME280;17465;47.934;33.430;2023-11-19T03:03:10;57434.22;;;-140.43;96.25
30714;BME280;17465;47.934;33.430;2023-11-19T03:05:41;57429.98;;;-140.43;95.57
30714;BME280;17465;47.934;33.430;2023-11-19T03:08:11;57431.04;;;-140.43;95.33
30714;BME280;17465;47.934;33.430;2023-11-19T03:10:44;57431.04;;;-140.43;95.33
30714;BME280;17465;47.934;33.430;2023-11-19T03:13:15;57407.74;;;-140.43;96.02
30714;BME280;17465;47.934;33.430;2023-11-19T03:15:46;57442.69;;;-140.43;96.10
30714;BME280;17465;47.934;33.430;2023-11-19T03:18:16;57438.46;;;-140.43;95.15
30714;BME280;17465;47.934;33.430;2023-11-19T03:20:47;57438.46;;;-140.43;95.15
30714;BME280;17465;47.934;33.430;2023-11-19T03:23:18;57423.63;;;-140.43;95.37
30714;BME280;17465;47.934;33.430;2023-11-19T03:25:49;57423.63;;;-140.43;95.37
30714;BME280;17465;47.934;33.430;2023-11-19T03:28:19;57428.92;;;-140.43;95.45
30714;BME280;17465;47.934;33.430;2023-11-19T03:30:49;57419.39;;;-140.43;95.42
30714;BME280;17465;47.934;33.430;2023-11-19T03:33:20;57453.28;;;-140.43;95.97
30714;BME280;17465;47.934;33.430;2023-11-19T03:35:51;57453.28;;;-140.43;95.97
30714;BME280;17465;47.934;33.430;2023-11-19T03:38:22;57446.93;;;-140.43;96.04
30714;BME280;17465;47.934;33.430;2023-11-19T03:40:53;57427.87;;;-140.43;96.09
30714;BME280;17465;47.934;33.430;2023-11-19T03:43:24;57427.87;;;-140.43;96.09
30714;BME280;17465;47.934;33.430;2023-11-19T03:46:02;57437.39;;;-140.43;96.63
30714;BME280;17465;47.934;33.430;2023-11-19T03:48:29;57437.39;;;-140.43;96.63
30714;BME280;17465;47.934;33.430;2023-11-19T03:51:00;57469.17;;;-140.43;96.52
30714;BME280;17465;47.934;33.430;2023-11-19T03:53:31;57428.92;;;-140.43;95.68
30714;BME280;17465;47.934;33.430;2023-11-19T03:56:01;57434.22;;;-140.43;95.70
30714;BME280;17465;47.934;33.430;2023-11-19T03:58:31;57434.22;;;-140.43;95.70
30714;BME280;17465;47.934;33.430;2023-11-19T04:01:02;57415.16;;;-140.43;96.22
30714;BME280;17465;47.934;33.430;2023-11-19T04:03:35;57433.16;;;-140.43;97.10
30714;BME280;17465;47.934;33.430;2023-11-19T04:06:06;57433.16;;;-140.43;97.10
30714;BME280;17465;47.934;33.430;2023-11-19T04:08:36;57479.76;;;-140.43;97.80
30714;BME280;17465;47.934;33.430;2023-11-19T04:11:06;57450.11;;;-140.43;96.96
30714;BME280;17465;47.934;33.430;2023-11-19T04:13:44;57450.11;;;-140.43;96.96
30714;BME280;17465;47.934;33.430;2023-11-19T04:16:15;57429.98;;;-140.43;97.22
30714;BME280;17465;47.934;33.430;2023-11-19T04:18:46;57437.39;;;-140.43;97.80
30714;BME280;17465;47.934;33.430;2023-11-19T04:21:16;57437.39;;;-140.43;97.80
30714;BME280;17465;47.934;33.430;2023-11-19T04:23:47;57453.28;;;-140.43;97.86
30714;BME280;17465;47.934;33.430;2023-11-19T04:26:17;57432.10;;;-140.43;98.30
30714;BME280;17465;47.934;33.430;2023-11-19T04:28:48;57438.46;;;-140.43;99.08
30714;BME280;17465;47.934;33.430;2023-11-19T04:31:20;57437.39;;;-140.43;98.42
30714;BME280;17465;47.934;33.430;2023-11-19T04:33:51;57437.39;;;-140.43;98.42
30714;BME280;17465;47.934;33.430;2023-11-19T04:36:21;57445.87;;;-140.43;98.03
30714;BME280;17465;47.934;33.430;2023-11-19T04:38:51;57423.63;;;-140.43;98.65
30714;BME280;17465;47.934;33.430;2023-11-19T04:41:22;57423.63;;;-140.43;98.65
30714;BME280;17465;47.934;33.430;2023-11-19T04:43:52;57446.93;;;-140.43;98.76
30714;BME280;17465;47.934;33.430;2023-11-19T04:46:22;57446.93;;;-140.43;98.76
30714;BME280;17465;47.934;33.430;2023-11-19T04:48:53;57425.75;;;-140.43;98.57
30714;BME280;17465;47.934;33.430;2023-11-19T04:51:23;57452.23;;;-140.43;97.62
30714;BME280;17465;47.934;33.430;2023-11-19T04:53:54;57428.92;;;-140.43;97.70
30714;BME280;17465;47.934;33.430;2023-11-19T04:56:24;57441.63;;;-140.43;98.11
30714;BME280;17465;47.934;33.430;2023-11-19T04:58:54;57441.63;;;-140.43;98.11
30714;BME280;17465;47.934;33.430;2023-11-19T05:01:25;57405.62;;;-140.43;98.78
30714;BME280;17465;47.934;33.430;2023-11-19T05:03:57;57405.62;;;-140.43;98.78
30714;BME280;17465;47.934;33.430;2023-11-19T05:06:29;57451.16;;;-140.43;97.73
30714;BME280;17465;47.934;33.430;2023-11-19T05:09:00;57450.11;;;-140.43;98.53
30714;BME280;17465;47.934;33.430;2023-11-19T05:11:36;57450.11;;;-140.43;98.53
30714;BME280;17465;47.934;33.430;2023-11-19T05:14:08;57437.39;;;-140.43;99.15
30714;BME280;17465;47.934;33.430;2023-11-19T05:16:42;57437.39;;;-140.43;99.15
30714;BME280;17465;47.934;33.430;2023-11-19T05:19:16;57433.16;;;-140.43;99.76
30714;BME280;17465;47.934;33.430;2023-11-19T05:21:55;57433.16;;;-140.43;99.76
30714;BME280;17465;47.934;33.430;2023-11-19T05:24:26;57458.58;;;-140.43;99.76
30714;BME280;17465;47.934;33.430;2023-11-19T05:27:00;57425.75;;;-140.43;99.99
30714;BME280;17465;47.934;33.430;2023-11-19T05:29:30;57441.63;;;-140.43;99.97
30714;BME280;17465;47.934;33.430;2023-11-19T05:32:02;57453.28;;;-140.43;99.91
30714;BME280;17465;47.934;33.430;2023-11-19T05:34:33;57452.23;;;-140.43;99.29
30714;BME280;17465;47.934;33.430;2023-11-19T05:37:03;57452.23;;;-140.43;99.29
30714;BME280;17465;47.934;33.430;2023-11-19T05:39:33;57438.46;;;-140.43;98.82
30714;BME280;17465;47.934;33.430;2023-11-19T05:42:04;57453.28;;;-140.43;98.71
30714;BME280;17465;47.934;33.430;2023-11-19T05:44:36;57431.04;;;-140.43;98.41
30714;BME280;17465;47.934;33.430;2023-11-19T05:47:09;57431.04;;;-140.43;98.41
30714;BME280;17465;47.934;33.430;2023-11-19T05:49:40;57427.87;;;-140.43;98.22
30714;BME280;17465;47.934;33.430;2023-11-19T05:52:10;57446.93;;;-140.43;97.72
30714;BME280;17465;47.934;33.430;2023-11-19T05:54:47;57453.28;;;-140.43;97.75
30714;BME280;17465;47.934;33.430;2023-11-19T05:57:17;57478.70;;;-140.43;98.08
30714;BME280;17465;47.934;33.430;2023-11-19T05:59:49;57444.81;;;-140.43;98.45
30714;BME280;17465;47.934;33.430;2023-11-19T06:02:19;57426.80;;;-140.43;98.17
30714;BME280;17465;47.934;33.430;2023-11-19T06:04:50;57445.87;;;-140.43;98.23
30714;BME280;17465;47.934;33.430;2023-11-19T06:07:20;57445.87;;;-140.43;98.23
30714;BME280;17465;47.934;33.430;2023-11-19T06:09:50;57458.58;;;-140.43;98.70
30714;BME280;17465;47.934;33.430;2023-11-19T06:12:21;57451.16;;;-140.43;98.95
30714;BME280;17465;47.934;33.430;2023-11-19T06:14:51;57440.57;;;-140.43;99.30
30714;BME280;17465;47.934;33.430;2023-11-19T06:17:28;57453.28;;;-140.43;99.46
30714;BME280;17465;47.934;33.430;2023-11-19T06:20:16;57452.23;;;-140.43;98.95
30714;BME280;17465;47.934;33.430;2023-11-19T06:22:49;57434.22;;;-140.43;98.50
30714;BME280;17465;47.934;33.430;2023-11-19T06:25:20;57434.22;;;-140.43;98.50
30714;BME280;17465;47.934;33.430;2023-11-19T06:27:51;57435.28;;;-140.43;99.45
30714;BME280;17465;47.934;33.430;2023-11-19T06:30:21;57425.75;;;-140.43;98.65
30714;BME280;17465;47.934;33.430;2023-11-19T06:32:52;57437.39;;;-140.43;99.55
30714;BME280;17465;47.934;33.430;2023-11-19T06:35:25;57438.46;;;-140.43;99.49
30714;BME280;17465;47.934;33.430;2023-11-19T06:37:55;57438.46;;;-140.43;99.49
30714;BME280;17465;47.934;33.430;2023-11-19T06:40:32;57455.40;;;-140.43;100.00
30714;BME280;17465;47.934;33.430;2023-11-19T06:43:02;57454.34;;;-140.43;99.61
30714;BME280;17465;47.934;33.430;2023-11-19T06:45:38;57429.98;;;-140.43;98.52
30714;BME280;17465;47.934;33.430;2023-11-19T06:48:05;57450.11;;;-140.43;98.42
30714;BME280;17465;47.934;33.430;2023-11-19T06:50:35;57442.69;;;-140.43;98.63
30714;BME280;17465;47.934;33.430;2023-11-19T06:53:05;57446.93;;;-140.43;99.84
30714;BME280;17465;47.934;33.430;2023-11-19T06:55:39;57446.93;;;-140.43;99.84
30714;BME280;17465;47.934;33.430;2023-11-19T06:58:17;57454.34;;;-140.43;98.38
30714;BME280;17465;47.934;33.430;2023-11-19T07:00:47;57416.21;;;-140.43;99.05
30714;BME280;17465;47.934;33.430;2023-11-19T07:03:21;57427.87;;;-140.43;99.25
30714;BME280;17465;47.934;33.430;2023-11-19T07:05:59;57435.28;;;-140.43;99.39
30714;BME280;17465;47.934;33.430;2023-11-19T07:08:33;57435.28;;;-140.43;99.39
30714;BME280;17465;47.934;33.430;2023-11-19T07:11:10;57452.23;;;-140.43;100.00
30714;BME280;17465;47.934;33.430;2023-11-19T07:13:37;57458.58;;;-140.43;100.00
30714;BME280;17465;47.934;33.430;2023-11-19T07:16:09;57465.99;;;-140.43;99.27
30714;BME280;17465;47.934;33.430;2023-11-19T07:18:40;57447.99;;;-140.43;98.85
30714;BME280;17465;47.934;33.430;2023-11-19T07:21:13;57447.99;;;-140.43;98.85
30714;BME280;17465;47.934;33.430;2023-11-19T07:23:44;57438.46;;;-140.43;99.73
30714;BME280;17465;47.934;33.430;2023-11-19T07:26:14;57444.81;;;-140.43;99.65
30714;BME280;17465;47.934;33.430;2023-11-19T07:28:44;57450.11;;;-140.43;100.00
30714;BME280;17465;47.934;33.430;2023-11-19T07:31:14;57458.58;;;-140.43;100.00
30714;BME280;17465;47.934;33.430;2023-11-19T07:33:49;57440.57;;;-140.43;100.00
30714;BME280;17465;47.934;33.430;2023-11-19T07:36:22;57434.22;;;-140.43;100.00
30714;BME280;17465;47.934;33.430;2023-11-19T07:38:55;57440.57;;;-140.43;99.54
30714;BME280;17465;47.934;33.430;2023-11-19T07:41:32;57439.52;;;-140.43;99.36
30714;BME280;17465;47.934;33.430;2023-11-19T07:44:10;57436.34;;;-140.43;100.00
30714;BME280;17465;47.934;33.430;2023-11-19T07:46:44;57447.99;;;-140.43;100.00
30714;BME280;17465;47.934;33.430;2023-11-19T07:49:23;57415.16;;;-140.43;99.57
30714;BME280;17465;47.934;33.430;2023-11-19T07:51:53;57452.23;;;-140.43;98.78
30714;BME280;17465;47.934;33.430;2023-11-19T07:54:29;57452.23;;;-140.43;99.03
30714;BME280;17465;47.934;33.430;2023-11-19T07:56:59;57452.23;;;-140.43;99.03
30714;BME280;17465;47.934;33.430;2023-11-19T07:59:30;57461.76;;;-140.43;99.90
30714;BME280;17465;47.934;33.430;2023-11-19T08:02:03;57433.16;;;-140.43;99.69
30714;BME280;17465;47.934;33.430;2023-11-19T08:07:10;57436.34;;;-140.43;100.00
30714;BME280;17465;47.934;33.430;2023-11-19T08:09:40;57451.16;;;-140.43;100.00
30714;BME280;17465;47.934;33.430;2023-11-19T08:12:13;57460.70;;;-140.43;100.00
30714;BME280;17465;47.934;33.430;2023-11-19T08:14:45;57432.10;;;-140.43;100.00
30714;BME280;17465;47.934;33.430;2023-11-19T08:17:19;57432.10;;;-140.43;100.00
30714;BME280;17465;47.934;33.430;2023-11-19T08:19:57;57434.22;;;-140.43;100.00
30714;BME280;17465;47.934;33.430;2023-11-19T08:22:33;57450.11;;;-140.43;100.00
30714;BME280;17465;47.934;33.430;2023-11-19T08:25:05;57463.87;;;-140.43;100.00
30714;BME280;17465;47.934;33.430;2023-11-19T08:27:39;57453.28;;;-140.43;100.00
30714;BME280;17465;47.934;33.430;2023-11-19T08:30:13;57460.70;;;-140.43;100.00
30714;BME280;17465;47.934;33.430;2023-11-19T08:32:43;57432.10;;;-140.43;100.00
30714;BME280;17465;47.934;33.430;2023-11-19T08:35:27;57447.99;;;-140.43;100.00
30714;BME280;17465;47.934;33.430;2023-11-19T08:41:21;57426.80;;;-140.43;100.00
30714;BME280;17465;47.934;33.430;2023-11-19T08:57:01;56681.29;;;-140.43;100.00
30714;BME280;17465;47.934;33.430;2023-11-19T08:59:33;57451.16;;;-140.43;100.00
30714;BME280;17465;47.934;33.430;2023-11-19T09:02:06;57428.92;;;-140.43;100.00
30714;BME280;17465;47.934;33.430;2023-11-19T09:04:42;57421.51;;;-140.43;99.51
30714;BME280;17465;47.934;33.430;2023-11-19T09:07:43;57421.51;;;-140.43;99.51
30714;BME280;17465;47.934;33.430;2023-11-19T09:13:52;57454.34;;;-140.43;100.00
30714;BME280;17465;47.934;33.430;2023-11-19T09:17:02;57454.34;;;-140.43;100.00
30714;BME280;17465;47.934;33.430;2023-11-19T09:19:29;57427.87;;;-140.43;100.00
30714;BME280;17465;47.934;33.430;2023-11-19T09:22:09;57426.80;;;-140.43;100.00
30714;BME280;17465;47.934;33.430;2023-11-19T09:24:35;57428.92;;;-140.43;100.00
30714;BME280;17465;47.934;33.430;2023-11-19T09:27:18;57428.92;;;-140.43;100.00
30714;BME280;17465;47.934;33.430;2023-11-19T09:29:54;57437.39;;;-140.43;100.00
30714;BME280;17465;47.934;33.430;2023-11-19T09:32:38;57422.57;;;-140.43;100.00
30714;BME280;17465;47.934;33.430;2023-11-19T09:35:25;57422.57;;;-140.43;100.00
30714;BME280;17465;47.934;33.430;2023-11-19T09:38:00;57447.99;;;-140.43;100.00
30714;BME280;17465;47.934;33.430;2023-11-19T09:40:34;57426.80;;;-140.43;100.00
30714;BME280;17465;47.934;33.430;2023-11-19T09:43:18;57425.75;;;-140.43;100.00
30714;BME280;17465;47.934;33.430;2023-11-19T09:46:09;57441.63;;;-140.43;100.00
30714;BME280;17465;47.934;33.430;2023-11-19T09:49:24;57420.45;;;-140.43;100.00
30714;BME280;17465;47.934;33.430;2023-11-19T09:51:47;57442.69;;;-140.43;100.00
30714;BME280;17465;47.934;33.430;2023-11-19T09:54:20;57418.33;;;-140.43;100.00
30714;BME280;17465;47.934;33.430;2023-11-19T09:57:46;57418.33;;;-140.43;100.00
30714;BME280;17465;47.934;33.430;2023-11-19T10:11:37;56656.94;;;-140.43;100.00
30714;BME280;17465;47.934;33.430;2023-11-19T10:14:37;57437.39;;;-140.43;100.00
30714;BME280;17465;47.934;33.430;2023-11-19T10:17:43;57417.27;;;-140.43;100.00
30714;BME280;17465;47.934;33.430;2023-11-19T10:24:11;57439.52;;;-140.43;100.00
30714;BME280;17465;47.934;33.430;2023-11-19T10:26:43;57428.92;;;-140.43;100.00
30714;BME280;17465;47.934;33.430;2023-11-19T10:43:01;57429.98;;;-140.43;100.00
30714;BME280;17465;47.934;33.430;2023-11-19T10:45:27;57420.45;;;-140.43;100.00
30714;BME280;17465;47.934;33.430;2023-11-19T10:47:59;57438.46;;;-140.43;100.00
30714;BME280;17465;47.934;33.430;2023-11-19T11:00:37;57438.46;;;-140.43;100.00
30714;BME280;17465;47.934;33.430;2023-11-19T11:09:40;57426.80;;;-140.43;100.00
30714;BME280;17465;47.934;33.430;2023-11-19T11:11:46;57434.22;;;-140.43;100.00
30714;BME280;17465;47.934;33.430;2023-11-19T11:14:28;56656.94;;;-140.43;100.00
30714;BME280;17465;47.934;33.430;2023-11-19T11:17:16;57429.98;;;-140.43;100.00
30714;BME280;17465;47.934;33.430;2023-11-19T11:19:42;57423.63;;;-140.43;100.00
30714;BME280;17465;47.934;33.430;2023-11-19T11:22:14;57431.04;;;-140.43;100.00
30714;BME280;17465;47.934;33.430;2023-11-19T11:31:15;57446.93;;;-140.43;100.00
30714;BME280;17465;47.934;33.430;2023-11-19T11:40:04;57421.51;;;-140.43;100.00
30714;BME280;17465;47.934;33.430;2023-11-19T11:42:38;57421.51;;;-140.43;100.00
30714;BME280;17465;47.934;33.430;2023-11-19T11:45:35;57431.04;;;-140.43;100.00
30714;BME280;17465;47.934;33.430;2023-11-19T11:48:07;57431.04;;;-140.43;100.00
30714;BME280;17465;47.934;33.430;2023-11-19T11:50:48;57420.45;;;-140.43;100.00
30714;BME280;17465;47.934;33.430;2023-11-19T11:53:22;57395.03;;;-140.43;100.00
30714;BME280;17465;47.934;33.430;2023-11-19T11:55:54;57425.75;;;-140.43;100.00
30714;BME280;17465;47.934;33.430;2023-11-19T11:58:32;57424.69;;;-140.43;100.00
30714;BME280;17465;47.934;33.430;2023-11-19T12:01:05;57424.69;;;-140.43;100.00
30714;BME280;17465;47.934;33.430;2023-11-19T12:03:39;57420.45;;;-140.43;100.00
30714;BME280;17465;47.934;33.430;2023-11-19T12:06:19;57451.16;;;-140.43;100.00
30714;BME280;17465;47.934;33.430;2023-11-19T12:09:00;57451.16;;;-140.43;100.00
30714;BME280;17465;47.934;33.430;2023-11-19T12:11:38;57418.33;;;-140.43;100.00
30714;BME280;17465;47.934;33.430;2023-11-19T12:14:14;57444.81;;;-140.43;100.00
30714;BME280;17465;47.934;33.430;2023-11-19T12:16:52;57451.16;;;-140.43;100.00
30714;BME280;17465;47.934;33.430;2023-11-19T12:22:38;57435.28;;;-140.43;100.00
30714;BME280;17465;47.934;33.430;2023-11-19T12:25:10;57435.28;;;-140.43;100.00
30714;BME280;17465;47.934;33.430;2023-11-19T12:31:08;57428.92;;;-140.43;100.00
30714;BME280;17465;47.934;33.430;2023-11-19T12:33:39;57428.92;;;-140.43;100.00
30714;BME280;17465;47.934;33.430;2023-11-19T12:36:09;57419.39;;;-140.43;100.00
30714;BME280;17465;47.934;33.430;2023-11-19T12:38:41;57419.39;;;-140.43;100.00
30714;BME280;17465;47.934;33.430;2023-11-19T12:41:12;57409.86;;;-140.43;100.00
30714;BME280;17465;47.934;33.430;2023-11-19T12:43:48;57417.27;;;-140.43;100.00
30714;BME280;17465;47.934;33.430;2023-11-19T12:48:57;57419.39;;;-140.43;100.00
30714;BME280;17465;47.934;33.430;2023-11-19T12:51:33;57403.51;;;-140.43;100.00
30714;BME280;17465;47.934;33.430;2023-11-19T12:54:04;57424.69;;;-140.43;100.00
30714;BME280;17465;47.934;33.430;2023-11-19T12:56:35;57418.33;;;-140.43;100.00
30714;BME280;17465;47.934;33.430;2023-11-19T12:59:12;57433.16;;;-140.43;100.00
30714;BME280;17465;47.934;33.430;2023-11-19T13:01:59;57426.80;;;-140.43;100.00
30714;BME280;17465;47.934;33.430;2023-11-19T13:04:32;57432.10;;;-140.43;100.00
30714;BME280;17465;47.934;33.430;2023-11-19T13:07:05;57428.92;;;-140.43;100.00
30714;BME280;17465;47.934;33.430;2023-11-19T13:09:45;57428.92;;;-140.43;100.00
30714;BME280;17465;47.934;33.430;2023-11-19T13:12:17;57420.45;;;-140.43;100.00
30714;BME280;17465;47.934;33.430;2023-11-19T13:14:47;57432.10;;;-140.43;100.00
30714;BME280;17465;47.934;33.430;2023-11-19T13:17:42;57402.45;;;-140.43;100.00
30714;BME280;17465;47.934;33.430;2023-11-19T13:20:19;57426.80;;;-140.43;100.00
30714;BME280;17465;47.934;33.430;2023-11-19T13:23:03;57421.51;;;-140.43;100.00
30714;BME280;17465;47.934;33.430;2023-11-19T13:25:34;57454.34;;;-140.43;100.00
30714;BME280;17465;47.934;33.430;2023-11-19T13:28:04;57454.34;;;-140.43;100.00
30714;BME280;17465;47.934;33.430;2023-11-19T13:30:40;57439.52;;;-140.43;100.00
30714;BME280;17465;47.934;33.430;2023-11-19T13:33:21;57423.63;;;-140.43;100.00
30714;BME280;17465;47.934;33.430;2023-11-19T13:35:54;57445.87;;;-140.43;100.00
30714;BME280;17465;47.934;33.430;2023-11-19T13:38:25;57422.57;;;-140.43;100.00
30714;BME280;17465;47.934;33.430;2023-11-19T13:40:55;57422.57;;;-140.43;100.00
30714;BME280;17465;47.934;33.430;2023-11-19T13:43:42;57458.58;;;-140.43;100.00
30714;BME280;17465;47.934;33.430;2023-11-19T13:46:14;57442.69;;;-140.43;100.00
30714;BME280;17465;47.934;33.430;2023-11-19T13:48:47;57435.28;;;-140.43;100.00
30714;BME280;17465;47.934;33.430;2023-11-19T13:51:20;57446.93;;;-140.43;100.00
30714;BME280;17465;47.934;33.430;2023-11-19T13:53:53;57441.63;;;-140.43;100.00
30714;BME280;17465;47.934;33.430;2023-11-19T13:56:26;57398.21;;;-140.43;100.00
30714;BME280;17465;47.934;33.430;2023-11-19T14:02:27;57446.93;;;-140.43;100.00
30714;BME280;17465;47.934;33.430;2023-11-19T14:05:00;57437.39;;;-140.43;100.00
30714;BME280;17465;47.934;33.430;2023-11-19T14:07:31;57427.87;;;-140.43;100.00
30714;BME280;17465;47.934;33.430;2023-11-19T14:10:02;57427.87;;;-140.43;100.00
30714;BME280;17465;47.934;33.430;2023-11-19T14:12:43;57456.46;;;-140.43;100.00
30714;BME280;17465;47.934;33.430;2023-11-19T14:15:17;57440.57;;;-140.43;100.00
30714;BME280;17465;47.934;33.430;2023-11-19T14:17:48;57456.46;;;-140.43;100.00
30714;BME280;17465;47.934;33.430;2023-11-19T14:20:18;57440.57;;;-140.43;100.00
30714;BME280;17465;47.934;33.430;2023-11-19T14:22:50;57461.76;;;-140.43;100.00
30714;BME280;17465;47.934;33.430;2023-11-19T14:25:22;57427.87;;;-140.43;100.00
30714;BME280;17465;47.934;33.430;2023-11-19T14:27:54;57427.87;;;-140.43;100.00
30714;BME280;17465;47.934;33.430;2023-11-19T14:30:25;57435.28;;;-140.43;100.00